Williston, Vermont
Current Conditions -  °F | °C
As of 10:54 AM on Wednesday 26 Nov 2014 (Local Time) from KBTV Reporting Station
Overcast Overcast  
Wind Chill: 27°   Ceiling: 11000
Heat Index: 34°   Visibility: 10mi
Dew Point: 20°   Wind: 8mph
Humidity: 56%   Direction: 360°N
Pressure: 30.2"   Gusts: NA
Location:  44.44°N, 73.07°W
Report Text: KBTV 261554Z 36007KT 10SM FEW090 OVC110 01/M07 A3020 RMK AO2 SLP231 VIRGA ALQDS ACSL ALQDS T00111067
Loading
Personal Weather Stations






























Interactive Weather Map New forecast layout! Learn more

10-Day Weather Forecast

Advertisements
Track Severe Weather on mobile